createdAt,value
2022-11-07T00:00:08.047Z,15.35
2022-11-07T00:02:43.621Z,15.90
2022-11-07T00:05:17.177Z,12.80
2022-11-07T00:07:50.869Z,18.48
2022-11-07T00:10:26.931Z,14.63
2022-11-07T00:13:00.740Z,9.18
2022-11-07T00:15:34.217Z,21.15
2022-11-07T00:18:07.842Z,12.55
2022-11-07T00:20:41.442Z,14.83
2022-11-07T00:23:19.759Z,14.60
2022-11-07T00:25:53.599Z,16.12
2022-11-07T00:28:26.976Z,18.75
2022-11-07T00:31:01.831Z,16.62
2022-11-07T00:33:38.165Z,18.17
2022-11-07T00:36:14.390Z,13.28
2022-11-07T00:38:48.392Z,13.98
2022-11-07T00:41:22.343Z,16.90
2022-11-07T00:43:55.983Z,17.02
2022-11-07T00:46:29.726Z,18.82
2022-11-07T00:49:04.493Z,16.87
2022-11-07T00:51:42.757Z,18.92
2022-11-07T00:54:16.907Z,17.92
2022-11-07T00:56:50.711Z,19.25
2022-11-07T00:59:25.184Z,18.90
2022-11-07T01:01:59.745Z,13.78
2022-11-07T01:04:51.704Z,17.25
2022-11-07T01:07:25.098Z,15.78
2022-11-07T01:09:59.122Z,13.68
2022-11-07T01:12:36.610Z,20.52
2022-11-07T01:15:12.511Z,15.90
2022-11-07T01:17:45.959Z,31.12
2022-11-07T01:20:19.365Z,20.80
2022-11-07T01:22:53.377Z,19.52
2022-11-07T01:25:28.539Z,16.60
2022-11-07T01:28:01.953Z,20.57
2022-11-07T01:30:37.045Z,18.27
2022-11-07T01:33:11.049Z,16.93
2022-11-07T01:35:44.438Z,21.27
2022-11-07T01:38:17.740Z,18.30
2022-11-07T01:41:12.636Z,20.43
2022-11-07T01:43:49.215Z,18.07
2022-11-07T01:46:25.280Z,10.85
2022-11-07T01:49:03.314Z,16.93
2022-11-07T01:51:41.174Z,16.97
2022-11-07T01:54:16.578Z,19.30
2022-11-07T01:56:51.459Z,17.23
2022-11-07T01:59:27.853Z,18.50
2022-11-07T02:02:02.180Z,17.30
2022-11-07T02:04:36.672Z,19.80
2022-11-07T02:07:13.032Z,17.87
2022-11-07T02:09:47.260Z,19.20
2022-11-07T02:12:22.317Z,18.62
2022-11-07T02:14:56.990Z,17.90
2022-11-07T02:17:30.636Z,17.60
2022-11-07T02:20:04.135Z,19.23
2022-11-07T02:22:41.573Z,19.25
2022-11-07T02:25:16.781Z,17.98
2022-11-07T02:27:53.345Z,19.37
2022-11-07T02:30:29.744Z,17.17
2022-11-07T02:33:03.185Z,18.25
2022-11-07T02:35:39.612Z,21.40
2022-11-07T02:38:15.771Z,16.60
2022-11-07T02:40:51.937Z,18.15
2022-11-07T02:43:28.712Z,17.32
2022-11-07T02:46:04.401Z,16.07
2022-11-07T02:48:44.041Z,21.68
2022-11-07T02:51:17.694Z,14.80
2022-11-07T02:53:51.097Z,18.75
2022-11-07T02:56:25.441Z,19.02
2022-11-07T02:58:58.917Z,15.88
2022-11-07T03:01:32.579Z,17.80
2022-11-07T03:04:06.337Z,17.12
2022-11-07T03:06:39.900Z,17.50
2022-11-07T03:09:12.969Z,19.15
2022-11-07T03:11:46.298Z,19.57
2022-11-07T03:14:19.894Z,17.98
2022-11-07T03:16:53.199Z,17.07
2022-11-07T03:19:27.375Z,19.37
2022-11-07T03:22:01.741Z,18.10
2022-11-07T03:24:35.532Z,16.57
2022-11-07T03:27:10.941Z,18.82
2022-11-07T03:29:44.467Z,10.63
2022-11-07T03:32:18.010Z,15.40
2022-11-07T03:34:51.810Z,14.93
2022-11-07T03:37:25.585Z,16.85
2022-11-07T03:39:58.917Z,16.07
2022-11-07T03:42:32.203Z,11.88
2022-11-07T03:45:06.347Z,19.37
2022-11-07T03:47:41.289Z,14.43
2022-11-07T03:50:16.953Z,17.00
2022-11-07T03:52:50.609Z,11.93
2022-11-07T03:55:23.934Z,14.68
2022-11-07T03:57:58.435Z,14.93
2022-11-07T04:00:32.259Z,16.37
2022-11-07T04:03:05.942Z,12.82
2022-11-07T04:05:39.297Z,12.37
2022-11-07T04:08:13.241Z,14.50
2022-11-07T04:10:46.547Z,16.02
2022-11-07T04:13:38.862Z,15.08
2022-11-07T04:16:47.549Z,14.93
2022-11-07T04:22:01.124Z,16.50
2022-11-07T04:24:35.050Z,12.10
2022-11-07T04:27:26.264Z,16.00
2022-11-07T04:30:00.312Z,15.23
2022-11-07T04:32:35.392Z,12.18
2022-11-07T04:35:10.720Z,11.68
2022-11-07T04:37:45.083Z,11.43
2022-11-07T04:40:20.225Z,9.93
2022-11-07T04:42:54.036Z,14.90
2022-11-07T04:45:27.531Z,12.75
2022-11-07T04:48:00.909Z,12.10
2022-11-07T04:50:34.419Z,12.07
2022-11-07T04:53:08.053Z,11.97
2022-11-07T04:55:41.722Z,13.08
2022-11-07T04:58:15.179Z,12.43
2022-11-07T05:00:49.165Z,12.43
2022-11-07T05:03:24.708Z,10.00
2022-11-07T05:05:58.133Z,10.10
2022-11-07T05:08:31.444Z,11.25
2022-11-07T05:11:05.259Z,11.95
2022-11-07T05:13:39.615Z,12.55
2022-11-07T05:16:17.204Z,12.70
2022-11-07T05:18:50.673Z,10.80
2022-11-07T05:21:24.280Z,11.45
2022-11-07T05:23:57.692Z,11.97
2022-11-07T05:26:34.705Z,11.18
2022-11-07T05:29:09.584Z,9.40
2022-11-07T05:31:43.771Z,11.15
2022-11-07T05:34:17.804Z,10.85
2022-11-07T05:36:51.912Z,13.75
2022-11-07T05:39:25.374Z,11.97
2022-11-07T05:41:59.406Z,8.68
2022-11-07T05:44:33.901Z,11.15
2022-11-07T05:47:08.921Z,15.48
2022-11-07T05:49:42.056Z,9.95
2022-11-07T05:52:15.887Z,13.50
2022-11-07T05:54:50.353Z,11.35
2022-11-07T05:57:25.135Z,13.28
2022-11-07T05:59:58.795Z,6.28
2022-11-07T06:02:33.171Z,10.03
2022-11-07T06:05:10.383Z,11.83
2022-11-07T06:07:44.307Z,11.60
2022-11-07T06:10:18.005Z,10.03
2022-11-07T06:13:00.181Z,12.63
2022-11-07T06:15:35.870Z,15.08
2022-11-07T06:18:11.654Z,8.25
2022-11-07T06:20:45.743Z,7.95
2022-11-07T06:23:20.438Z,11.03
2022-11-07T06:25:54.393Z,11.10
2022-11-07T06:28:28.175Z,13.13
2022-11-07T06:31:03.746Z,11.15
2022-11-07T06:33:37.291Z,9.45
2022-11-07T06:36:13.879Z,12.18
2022-11-07T06:38:48.119Z,11.40
2022-11-07T06:41:22.099Z,11.80
2022-11-07T06:43:55.732Z,10.13
2022-11-07T06:46:29.299Z,10.38
2022-11-07T06:49:02.781Z,10.65
2022-11-07T06:51:36.311Z,16.23
2022-11-07T06:54:09.982Z,10.80
2022-11-07T06:56:43.542Z,12.90
2022-11-07T06:59:17.068Z,10.60
2022-11-07T07:01:52.291Z,8.73
2022-11-07T07:04:25.796Z,10.82
2022-11-07T07:06:59.305Z,10.50
2022-11-07T07:09:33.382Z,9.00
2022-11-07T07:12:12.511Z,10.15
2022-11-07T07:14:46.200Z,9.60
2022-11-07T07:17:20.276Z,10.03
2022-11-07T07:19:54.253Z,8.55
2022-11-07T07:22:27.690Z,15.25
2022-11-07T07:25:01.440Z,12.53
2022-11-07T07:27:34.997Z,15.25
2022-11-07T07:30:11.437Z,11.25
2022-11-07T07:32:45.124Z,12.18
2022-11-07T07:35:19.044Z,13.85
2022-11-07T07:37:54.028Z,12.50
2022-11-07T07:40:27.412Z,10.80
2022-11-07T07:43:00.883Z,13.43
2022-11-07T07:45:34.404Z,10.68
2022-11-07T07:48:09.049Z,10.20
2022-11-07T07:50:42.606Z,11.78
2022-11-07T07:53:16.346Z,10.20
2022-11-07T07:55:50.461Z,8.18
2022-11-07T07:58:24.389Z,10.90
2022-11-07T08:00:59.172Z,11.38
2022-11-07T08:03:57.621Z,8.00
2022-11-07T08:06:09.574Z,10.85
2022-11-07T08:08:44.540Z,10.38
2022-11-07T08:11:18.001Z,9.70
2022-11-07T08:13:51.607Z,12.65
2022-11-07T08:16:25.124Z,10.18
2022-11-07T08:18:58.769Z,12.70
2022-11-07T08:21:34.725Z,12.40
2022-11-07T08:24:09.981Z,10.50
2022-11-07T08:26:43.693Z,7.95
2022-11-07T08:29:18.104Z,11.70
2022-11-07T08:31:51.743Z,13.10
2022-11-07T08:34:25.480Z,9.48
2022-11-07T08:36:59.568Z,10.55
2022-11-07T08:39:33.256Z,9.98
2022-11-07T08:42:07.922Z,8.73
2022-11-07T08:44:42.164Z,9.15
2022-11-07T08:47:15.792Z,7.28
2022-11-07T08:49:51.544Z,11.57
2022-11-07T08:52:25.438Z,8.05
2022-11-07T08:55:01.082Z,9.08
2022-11-07T08:57:36.848Z,10.58
2022-11-07T09:00:14.153Z,8.60
2022-11-07T09:05:27.501Z,7.03
2022-11-07T09:08:01.356Z,9.70
2022-11-07T09:10:35.236Z,10.70
2022-11-07T09:13:08.759Z,8.55
2022-11-07T09:15:50.348Z,10.55
2022-11-07T09:18:20.011Z,10.48
2022-11-07T09:20:54.960Z,8.78
2022-11-07T09:23:28.834Z,6.95
2022-11-07T09:26:02.907Z,9.48
2022-11-07T09:28:36.891Z,9.05
2022-11-07T09:31:11.031Z,11.45
2022-11-07T09:33:45.198Z,9.63
2022-11-07T09:36:18.877Z,10.90
2022-11-07T09:38:53.751Z,6.67
2022-11-07T09:44:47.770Z,11.22
2022-11-07T09:47:25.298Z,10.05
2022-11-07T09:50:02.734Z,8.95
2022-11-07T09:52:41.292Z,8.35
2022-11-07T09:55:20.981Z,10.75
2022-11-07T09:57:57.393Z,9.28
2022-11-07T10:00:32.836Z,11.70
2022-11-07T10:03:08.985Z,11.93
2022-11-07T10:05:50.785Z,13.68
2022-11-07T10:08:27.461Z,12.07
2022-11-07T10:11:03.883Z,14.93
2022-11-07T10:13:54.311Z,10.10
2022-11-07T10:16:37.321Z,11.75
2022-11-07T10:19:24.019Z,15.05
2022-11-07T10:22:02.352Z,11.35
2022-11-07T10:24:51.966Z,11.35
2022-11-07T10:27:27.583Z,11.43
2022-11-07T10:30:02.104Z,11.73
2022-11-07T10:32:40.101Z,13.53
2022-11-07T10:37:57.229Z,10.90
2022-11-07T10:40:35.408Z,11.83
2022-11-07T10:43:11.548Z,11.73
2022-11-07T10:45:45.880Z,12.53
2022-11-07T10:48:19.904Z,10.43
2022-11-07T10:50:57.744Z,13.28
2022-11-07T10:53:31.336Z,12.25
2022-11-07T10:56:07.587Z,14.10
2022-11-07T10:58:46.510Z,12.20
2022-11-07T11:01:26.061Z,11.18
2022-11-07T11:04:00.177Z,9.50
2022-11-07T11:06:34.165Z,10.80
2022-11-07T11:09:20.052Z,11.18
2022-11-07T11:11:55.159Z,11.43
2022-11-07T11:14:28.952Z,12.45
2022-11-07T11:17:02.756Z,12.13
2022-11-07T11:19:40.957Z,11.20
2022-11-07T11:22:18.813Z,13.20
2022-11-07T11:27:39.669Z,12.85
2022-11-07T11:30:17.849Z,14.80
2022-11-07T11:32:54.156Z,12.95
2022-11-07T11:35:42.031Z,14.60
2022-11-07T11:38:18.001Z,12.95
2022-11-07T11:41:03.287Z,11.35
2022-11-07T11:43:33.264Z,14.00
2022-11-07T11:46:10.841Z,13.03
2022-11-07T11:48:48.269Z,14.60
2022-11-07T11:51:25.402Z,13.83
2022-11-07T11:53:59.731Z,14.00
2022-11-07T11:56:41.029Z,13.98
2022-11-07T11:59:36.539Z,17.30
2022-11-07T12:02:25.151Z,17.92
2022-11-07T12:05:02.636Z,16.65
2022-11-07T12:07:45.911Z,16.15
2022-11-07T12:10:22.987Z,17.95
2022-11-07T12:13:02.696Z,17.40
2022-11-07T12:15:52.582Z,18.35
2022-11-07T12:18:30.873Z,16.23
2022-11-07T12:21:10.479Z,21.42
2022-11-07T12:23:51.304Z,23.20
2022-11-07T12:26:28.156Z,22.48
2022-11-07T12:29:06.036Z,26.30
2022-11-07T12:31:51.184Z,22.62
2022-11-07T12:34:34.890Z,19.07
2022-11-07T12:37:20.819Z,17.02
2022-11-07T12:40:05.539Z,16.25
2022-11-07T12:42:49.108Z,22.15
2022-11-07T12:45:26.658Z,17.70
2022-11-07T12:48:13.479Z,19.50
2022-11-07T12:50:50.991Z,25.72
2022-11-07T12:53:32.972Z,24.12
2022-11-07T12:56:09.829Z,21.68
2022-11-07T12:58:45.258Z,12.28
2022-11-07T13:01:21.872Z,19.75
2022-11-07T13:04:04.366Z,14.35
2022-11-07T13:06:40.879Z,20.30
2022-11-07T13:09:20.579Z,17.32
2022-11-07T13:11:59.196Z,18.07
2022-11-07T13:14:36.477Z,17.00
2022-11-07T13:17:21.147Z,22.07
2022-11-07T13:20:06.181Z,18.30
2022-11-07T13:22:41.681Z,15.30
2022-11-07T13:25:33.332Z,15.70
2022-11-07T13:28:10.660Z,15.50
2022-11-07T13:30:48.089Z,17.37
2022-11-07T13:33:29.826Z,19.07
2022-11-07T13:36:14.452Z,17.32
2022-11-07T13:38:54.605Z,23.10
2022-11-07T13:41:31.438Z,17.02
2022-11-07T13:44:08.003Z,20.48
2022-11-07T13:46:46.695Z,22.45
2022-11-07T13:49:22.998Z,22.67
2022-11-07T13:51:59.424Z,16.97
2022-11-07T13:54:36.481Z,23.10
2022-11-07T13:57:14.990Z,21.77
2022-11-07T13:59:51.412Z,21.65
2022-11-07T14:02:26.920Z,24.90
2022-11-07T14:05:20.788Z,26.17
2022-11-07T14:07:43.233Z,30.82
2022-11-07T14:10:25.305Z,25.23
2022-11-07T14:13:05.269Z,26.37
2022-11-07T14:15:41.133Z,28.23
2022-11-07T14:18:17.631Z,20.92
2022-11-07T14:20:52.522Z,20.88
2022-11-07T14:23:30.050Z,23.92
2022-11-07T14:26:07.692Z,17.00
2022-11-07T14:28:42.381Z,22.87
2022-11-07T14:31:21.701Z,28.00
2022-11-07T14:33:59.626Z,30.15
2022-11-07T14:36:34.580Z,23.55
2022-11-07T14:39:15.547Z,22.15
2022-11-07T14:41:48.301Z,28.55
2022-11-07T14:44:28.391Z,28.92
2022-11-07T14:47:01.123Z,24.85
2022-11-07T14:49:39.326Z,28.23
2022-11-07T14:52:20.978Z,27.00
2022-11-07T14:54:57.175Z,26.50
2022-11-07T14:57:30.797Z,24.02
2022-11-07T15:00:12.990Z,26.73
2022-11-07T15:02:49.216Z,23.10
2022-11-07T15:05:28.315Z,23.18
2022-11-07T15:08:02.948Z,21.77
2022-11-07T15:10:41.193Z,24.95
2022-11-07T15:13:25.460Z,23.75
2022-11-07T15:16:06.678Z,22.82
2022-11-07T15:18:46.055Z,22.35
2022-11-07T15:21:31.682Z,21.35
2022-11-07T15:24:25.468Z,27.45
2022-11-07T15:27:03.773Z,24.57
2022-11-07T15:29:38.107Z,23.05
2022-11-07T15:32:17.485Z,23.42
2022-11-07T15:35:07.824Z,23.05
2022-11-07T15:37:29.846Z,20.43
2022-11-07T15:40:03.568Z,27.48
2022-11-07T15:42:37.273Z,27.32
2022-11-07T15:45:12.307Z,20.50
2022-11-07T15:47:47.126Z,26.70
2022-11-07T15:50:23.158Z,23.47
2022-11-07T15:52:57.153Z,23.67
2022-11-07T15:55:30.772Z,24.82
2022-11-07T15:58:04.222Z,28.60
2022-11-07T16:00:37.729Z,27.27
2022-11-07T16:03:17.065Z,26.55
2022-11-07T16:05:53.504Z,28.75
2022-11-07T16:08:27.361Z,22.58
2022-11-07T16:11:02.850Z,25.45
2022-11-07T16:13:36.425Z,29.35
2022-11-07T16:16:14.155Z,27.13
2022-11-07T16:21:21.343Z,27.48
2022-11-07T16:23:55.230Z,25.75
2022-11-07T16:26:31.984Z,25.62
2022-11-07T16:29:05.672Z,28.87
2022-11-07T16:31:39.377Z,30.90
2022-11-07T16:34:13.294Z,29.07
2022-11-07T16:36:48.927Z,33.98
2022-11-07T16:39:23.704Z,41.25
2022-11-07T16:41:57.323Z,31.17
2022-11-07T16:44:30.799Z,33.90
2022-11-07T16:47:04.598Z,31.68
2022-11-07T16:49:39.424Z,37.55
2022-11-07T16:54:59.291Z,30.80
2022-11-07T16:57:36.981Z,30.67
2022-11-07T17:00:19.715Z,33.23
2022-11-07T17:02:53.339Z,29.70
2022-11-07T17:05:27.280Z,30.43
2022-11-07T17:08:01.531Z,24.32
2022-11-07T17:10:35.409Z,35.40
2022-11-07T17:13:09.097Z,30.70
2022-11-07T17:15:42.935Z,34.55
2022-11-07T17:18:23.355Z,37.20
2022-11-07T17:20:57.503Z,36.75
2022-11-07T17:23:31.369Z,30.82
2022-11-07T17:26:07.267Z,28.40
2022-11-07T17:28:40.840Z,34.95
2022-11-07T17:31:14.536Z,29.05
2022-11-07T17:33:48.273Z,29.00
2022-11-07T17:36:30.861Z,36.23
2022-11-07T17:39:05.414Z,30.52
2022-11-07T17:41:39.072Z,28.62
2022-11-07T17:44:12.832Z,34.43
2022-11-07T17:46:47.631Z,30.62
2022-11-07T17:49:22.556Z,30.62
2022-11-07T17:51:56.100Z,36.50
2022-11-07T17:54:29.916Z,30.88
2022-11-07T17:57:05.758Z,28.17
2022-11-07T17:59:44.769Z,28.70
2022-11-07T18:02:18.806Z,22.48
2022-11-07T18:04:52.587Z,27.00
2022-11-07T18:07:25.913Z,26.42
2022-11-07T18:09:59.570Z,25.12
2022-11-07T18:12:34.718Z,25.35
2022-11-07T18:15:11.945Z,25.88
2022-11-07T18:17:45.266Z,22.75
2022-11-07T18:20:18.964Z,27.42
2022-11-07T18:22:53.943Z,28.62
2022-11-07T18:25:27.886Z,26.52
2022-11-07T18:28:01.556Z,25.80
2022-11-07T18:30:36.548Z,27.25
2022-11-07T18:33:09.944Z,23.07
2022-11-07T18:35:44.391Z,24.72
2022-11-07T18:38:18.043Z,24.35
2022-11-07T18:40:59.237Z,23.12
2022-11-07T18:43:33.628Z,23.10
2022-11-07T18:46:09.339Z,23.83
2022-11-07T18:48:43.491Z,24.77
2022-11-07T18:51:19.712Z,23.38
2022-11-07T18:53:54.887Z,25.60
2022-11-07T18:56:29.208Z,27.60
2022-11-07T18:59:03.318Z,23.32
2022-11-07T19:01:37.061Z,27.50
2022-11-07T19:04:11.575Z,19.62
2022-11-07T19:06:57.524Z,32.20
2022-11-07T19:09:33.400Z,22.32
2022-11-07T19:12:07.021Z,28.92
2022-11-07T19:14:40.504Z,28.32
2022-11-07T19:17:14.045Z,28.75
2022-11-07T19:19:47.796Z,34.13
2022-11-07T19:22:21.205Z,25.43
2022-11-07T19:24:54.812Z,28.87
2022-11-07T19:27:29.757Z,28.07
2022-11-07T19:30:03.367Z,31.15
2022-11-07T19:32:36.888Z,27.30
2022-11-07T19:35:11.193Z,29.57
2022-11-07T19:37:44.793Z,32.13
2022-11-07T19:40:18.386Z,30.20
2022-11-07T19:42:52.545Z,25.30
2022-11-07T19:45:27.597Z,23.27
2022-11-07T19:48:00.644Z,33.73
2022-11-07T19:50:33.955Z,33.67
2022-11-07T19:53:07.913Z,29.30
2022-11-07T19:55:41.894Z,28.20
2022-11-07T19:58:16.923Z,27.87
2022-11-07T20:00:50.500Z,34.30
2022-11-07T20:03:24.153Z,33.13
2022-11-07T20:05:57.913Z,24.95
2022-11-07T20:08:31.396Z,30.05
2022-11-07T20:11:05.084Z,27.37
2022-11-07T20:13:38.419Z,31.73
2022-11-07T20:16:13.276Z,29.63
2022-11-07T20:18:46.976Z,27.20
2022-11-07T20:21:22.656Z,34.35
2022-11-07T20:23:57.611Z,28.92
2022-11-07T20:26:33.017Z,29.55
2022-11-07T20:29:07.421Z,28.38
2022-11-07T20:31:43.951Z,28.98
2022-11-07T20:34:20.248Z,31.60
2022-11-07T20:36:55.535Z,15.20
2022-11-07T20:39:29.906Z,31.75
2022-11-07T20:42:03.348Z,28.30
2022-11-07T20:44:37.087Z,27.75
2022-11-07T20:47:11.384Z,31.55
2022-11-07T20:49:45.305Z,31.23
2022-11-07T20:52:18.643Z,34.48
2022-11-07T20:54:52.557Z,34.05
2022-11-07T20:57:26.092Z,35.78
2022-11-07T20:59:59.419Z,30.80
2022-11-07T21:02:34.614Z,28.35
2022-11-07T21:05:17.748Z,33.10
2022-11-07T21:07:44.624Z,30.15
2022-11-07T21:10:18.281Z,36.88
2022-11-07T21:12:51.317Z,29.12
2022-11-07T21:15:24.704Z,35.68
2022-11-07T21:17:58.124Z,34.33
2022-11-07T21:20:31.410Z,29.63
2022-11-07T21:23:05.109Z,21.97
2022-11-07T21:25:43.115Z,31.12
2022-11-07T21:28:18.736Z,28.80
2022-11-07T21:31:01.998Z,29.72
2022-11-07T21:33:35.695Z,26.30
2022-11-07T21:36:13.332Z,36.05
2022-11-07T21:38:46.932Z,32.00
2022-11-07T21:41:20.288Z,31.12
2022-11-07T21:43:53.929Z,33.35
2022-11-07T21:46:29.055Z,33.65
2022-11-07T21:49:03.080Z,27.52
2022-11-07T21:51:37.027Z,36.53
2022-11-07T21:54:11.393Z,27.37
2022-11-07T21:56:44.922Z,36.03
2022-11-07T21:59:19.629Z,30.30
2022-11-07T22:01:54.798Z,26.20
2022-11-07T22:04:28.304Z,32.33
2022-11-07T22:07:02.344Z,33.70
2022-11-07T22:09:35.665Z,26.37
2022-11-07T22:12:09.569Z,35.30
2022-11-07T22:14:43.116Z,34.90
2022-11-07T22:17:16.827Z,26.02
2022-11-07T22:19:51.268Z,28.17
2022-11-07T22:22:24.537Z,33.50
2022-11-07T22:24:57.916Z,32.60
2022-11-07T22:27:31.370Z,34.75
2022-11-07T22:30:04.974Z,38.92
2022-11-07T22:32:38.200Z,31.37
2022-11-07T22:35:12.555Z,26.27
2022-11-07T22:37:45.944Z,29.45
2022-11-07T22:40:20.477Z,20.08
2022-11-07T22:42:54.081Z,27.15
2022-11-07T22:45:27.459Z,31.35
2022-11-07T22:48:00.984Z,26.40
2022-11-07T22:50:34.359Z,27.17
2022-11-07T22:53:08.050Z,20.15
2022-11-07T22:55:41.916Z,30.85
2022-11-07T22:58:16.082Z,31.68
2022-11-07T23:00:49.676Z,19.70
2022-11-07T23:03:23.232Z,27.67
2022-11-07T23:05:56.502Z,23.52
2022-11-07T23:08:29.907Z,22.27
2022-11-07T23:11:44.096Z,29.50
2022-11-07T23:13:41.810Z,23.10
2022-11-07T23:16:35.133Z,24.25
2022-11-07T23:19:10.148Z,32.83
2022-11-07T23:21:43.567Z,26.05
2022-11-07T23:24:17.122Z,28.00
2022-11-07T23:26:50.785Z,20.12
2022-11-07T23:29:25.562Z,32.35
2022-11-07T23:31:58.892Z,30.02
2022-11-07T23:34:33.456Z,26.82
2022-11-07T23:37:09.837Z,24.43
2022-11-07T23:39:44.060Z,30.77
2022-11-07T23:42:17.552Z,30.32
2022-11-07T23:45:08.594Z,29.48
2022-11-07T23:48:00.013Z,28.10
2022-11-07T23:50:50.756Z,33.90
2022-11-07T23:53:41.162Z,20.20
2022-11-07T23:56:14.626Z,30.45
2022-11-07T23:59:06.221Z,28.35
